sensor_id;sensor_type;location;lat;lon;timestamp;P1;durP1;ratioP1;P2;durP2;ratioP2
8594;SDS011;4335;48.860;9.198;2022-11-20T00:01:04;12.17;;;8.70;;
8594;SDS011;4335;48.860;9.198;2022-11-20T00:03:30;10.67;;;8.53;;
8594;SDS011;4335;48.860;9.198;2022-11-20T00:05:59;13.17;;;9.27;;
8594;SDS011;4335;48.860;9.198;2022-11-20T00:08:25;11.57;;;8.83;;
8594;SDS011;4335;48.860;9.198;2022-11-20T00:10:52;12.80;;;8.57;;
8594;SDS011;4335;48.860;9.198;2022-11-20T00:13:21;12.47;;;8.90;;
8594;SDS011;4335;48.860;9.198;2022-11-20T00:15:50;12.87;;;9.53;;
8594;SDS011;4335;48.860;9.198;2022-11-20T00:18:22;12.67;;;9.40;;
8594;SDS011;4335;48.860;9.198;2022-11-20T00:20:50;11.97;;;7.57;;
8594;SDS011;4335;48.860;9.198;2022-11-20T00:23:16;11.50;;;8.40;;
8594;SDS011;4335;48.860;9.198;2022-11-20T00:25:43;10.73;;;7.70;;
8594;SDS011;4335;48.860;9.198;2022-11-20T00:28:13;12.47;;;9.07;;
8594;SDS011;4335;48.860;9.198;2022-11-20T00:30:40;10.07;;;7.50;;
8594;SDS011;4335;48.860;9.198;2022-11-20T00:33:07;11.83;;;8.27;;
8594;SDS011;4335;48.860;9.198;2022-11-20T00:35:34;11.93;;;8.60;;
8594;SDS011;4335;48.860;9.198;2022-11-20T00:38:00;12.83;;;8.87;;
8594;SDS011;4335;48.860;9.198;2022-11-20T00:40:30;14.10;;;8.20;;
8594;SDS011;4335;48.860;9.198;2022-11-20T00:42:57;9.83;;;8.13;;
8594;SDS011;4335;48.860;9.198;2022-11-20T00:45:26;15.07;;;10.10;;
8594;SDS011;4335;48.860;9.198;2022-11-20T00:47:53;13.53;;;9.13;;
8594;SDS011;4335;48.860;9.198;2022-11-20T00:50:20;12.53;;;9.37;;
8594;SDS011;4335;48.860;9.198;2022-11-20T00:52:47;13.37;;;8.97;;
8594;SDS011;4335;48.860;9.198;2022-11-20T00:55:14;14.27;;;9.57;;
8594;SDS011;4335;48.860;9.198;2022-11-20T00:57:41;12.80;;;8.67;;
8594;SDS011;4335;48.860;9.198;2022-11-20T01:00:08;12.80;;;9.03;;
8594;SDS011;4335;48.860;9.198;2022-11-20T01:02:38;12.83;;;8.90;;
8594;SDS011;4335;48.860;9.198;2022-11-20T01:05:05;12.47;;;8.47;;
8594;SDS011;4335;48.860;9.198;2022-11-20T01:07:32;11.53;;;8.60;;
8594;SDS011;4335;48.860;9.198;2022-11-20T01:09:59;10.23;;;7.67;;
8594;SDS011;4335;48.860;9.198;2022-11-20T01:12:26;11.53;;;8.67;;
8594;SDS011;4335;48.860;9.198;2022-11-20T01:14:52;15.33;;;10.73;;
8594;SDS011;4335;48.860;9.198;2022-11-20T01:17:22;15.73;;;10.20;;
8594;SDS011;4335;48.860;9.198;2022-11-20T01:19:49;15.20;;;8.77;;
8594;SDS011;4335;48.860;9.198;2022-11-20T01:22:16;13.47;;;8.87;;
8594;SDS011;4335;48.860;9.198;2022-11-20T01:24:43;11.67;;;8.03;;
8594;SDS011;4335;48.860;9.198;2022-11-20T01:27:10;12.77;;;8.80;;
8594;SDS011;4335;48.860;9.198;2022-11-20T01:29:37;11.53;;;8.87;;
8594;SDS011;4335;48.860;9.198;2022-11-20T01:32:06;11.43;;;7.73;;
8594;SDS011;4335;48.860;9.198;2022-11-20T01:34:36;10.90;;;8.17;;
8594;SDS011;4335;48.860;9.198;2022-11-20T01:37:05;11.67;;;8.53;;
8594;SDS011;4335;48.860;9.198;2022-11-20T01:39:32;10.60;;;8.60;;
8594;SDS011;4335;48.860;9.198;2022-11-20T01:42:00;9.07;;;7.20;;
8594;SDS011;4335;48.860;9.198;2022-11-20T01:44:50;9.33;;;7.17;;
8594;SDS011;4335;48.860;9.198;2022-11-20T01:47:22;10.57;;;7.77;;
8594;SDS011;4335;48.860;9.198;2022-11-20T01:49:54;9.53;;;7.03;;
8594;SDS011;4335;48.860;9.198;2022-11-20T01:52:34;7.30;;;6.30;;
8594;SDS011;4335;48.860;9.198;2022-11-20T01:55:05;7.10;;;6.40;;
8594;SDS011;4335;48.860;9.198;2022-11-20T01:57:35;8.90;;;7.20;;
8594;SDS011;4335;48.860;9.198;2022-11-20T02:00:06;8.83;;;6.90;;
8594;SDS011;4335;48.860;9.198;2022-11-20T02:02:35;8.90;;;6.97;;
8594;SDS011;4335;48.860;9.198;2022-11-20T02:05:17;9.80;;;7.67;;
8594;SDS011;4335;48.860;9.198;2022-11-20T02:07:48;9.40;;;7.77;;
8594;SDS011;4335;48.860;9.198;2022-11-20T02:10:16;11.67;;;7.60;;
8594;SDS011;4335;48.860;9.198;2022-11-20T02:12:47;8.80;;;7.47;;
8594;SDS011;4335;48.860;9.198;2022-11-20T02:15:35;11.27;;;8.33;;
8594;SDS011;4335;48.860;9.198;2022-11-20T02:18:08;9.70;;;8.07;;
8594;SDS011;4335;48.860;9.198;2022-11-20T02:20:36;10.97;;;7.43;;
8594;SDS011;4335;48.860;9.198;2022-11-20T02:23:05;8.47;;;7.03;;
8594;SDS011;4335;48.860;9.198;2022-11-20T02:25:37;7.43;;;6.53;;
8594;SDS011;4335;48.860;9.198;2022-11-20T02:28:09;8.23;;;6.73;;
8594;SDS011;4335;48.860;9.198;2022-11-20T02:30:36;8.70;;;6.50;;
8594;SDS011;4335;48.860;9.198;2022-11-20T02:33:03;8.23;;;6.90;;
8594;SDS011;4335;48.860;9.198;2022-11-20T02:35:39;9.70;;;6.67;;
8594;SDS011;4335;48.860;9.198;2022-11-20T02:38:08;8.17;;;6.50;;
8594;SDS011;4335;48.860;9.198;2022-11-20T02:40:35;9.23;;;6.77;;
8594;SDS011;4335;48.860;9.198;2022-11-20T02:43:03;7.17;;;6.47;;
8594;SDS011;4335;48.860;9.198;2022-11-20T02:45:32;7.30;;;5.90;;
8594;SDS011;4335;48.860;9.198;2022-11-20T02:47:59;7.93;;;6.70;;
8594;SDS011;4335;48.860;9.198;2022-11-20T02:50:26;6.57;;;5.80;;
8594;SDS011;4335;48.860;9.198;2022-11-20T02:52:53;7.23;;;6.27;;
8594;SDS011;4335;48.860;9.198;2022-11-20T02:55:20;9.10;;;6.10;;
8594;SDS011;4335;48.860;9.198;2022-11-20T02:57:47;7.63;;;5.83;;
8594;SDS011;4335;48.860;9.198;2022-11-20T03:00:14;7.33;;;5.40;;
8594;SDS011;4335;48.860;9.198;2022-11-20T03:02:41;6.27;;;4.97;;
8594;SDS011;4335;48.860;9.198;2022-11-20T03:05:10;6.43;;;4.57;;
8594;SDS011;4335;48.860;9.198;2022-11-20T03:07:37;5.20;;;4.70;;
8594;SDS011;4335;48.860;9.198;2022-11-20T03:10:04;6.30;;;4.67;;
8594;SDS011;4335;48.860;9.198;2022-11-20T03:12:32;5.10;;;3.83;;
8594;SDS011;4335;48.860;9.198;2022-11-20T03:15:06;5.00;;;3.80;;
8594;SDS011;4335;48.860;9.198;2022-11-20T03:17:33;4.20;;;3.20;;
8594;SDS011;4335;48.860;9.198;2022-11-20T03:20:03;3.43;;;3.00;;
8594;SDS011;4335;48.860;9.198;2022-11-20T03:22:31;5.27;;;2.90;;
8594;SDS011;4335;48.860;9.198;2022-11-20T03:25:00;3.20;;;2.60;;
8594;SDS011;4335;48.860;9.198;2022-11-20T03:27:36;3.43;;;3.13;;
8594;SDS011;4335;48.860;9.198;2022-11-20T03:30:03;3.83;;;3.10;;
8594;SDS011;4335;48.860;9.198;2022-11-20T03:32:31;3.20;;;2.83;;
8594;SDS011;4335;48.860;9.198;2022-11-20T03:34:58;4.80;;;3.03;;
8594;SDS011;4335;48.860;9.198;2022-11-20T03:37:25;3.03;;;2.67;;
8594;SDS011;4335;48.860;9.198;2022-11-20T03:39:52;2.87;;;2.60;;
8594;SDS011;4335;48.860;9.198;2022-11-20T03:42:24;4.43;;;3.00;;
8594;SDS011;4335;48.860;9.198;2022-11-20T03:45:16;3.27;;;2.63;;
8594;SDS011;4335;48.860;9.198;2022-11-20T03:47:44;2.83;;;2.50;;
8594;SDS011;4335;48.860;9.198;2022-11-20T03:50:11;3.40;;;2.67;;
8594;SDS011;4335;48.860;9.198;2022-11-20T03:52:39;3.27;;;2.97;;
8594;SDS011;4335;48.860;9.198;2022-11-20T03:55:06;3.63;;;2.60;;
8594;SDS011;4335;48.860;9.198;2022-11-20T03:57:33;4.43;;;2.67;;
8594;SDS011;4335;48.860;9.198;2022-11-20T04:00:00;2.50;;;2.30;;
8594;SDS011;4335;48.860;9.198;2022-11-20T04:02:28;3.63;;;3.00;;
8594;SDS011;4335;48.860;9.198;2022-11-20T04:04:57;6.40;;;3.53;;
8594;SDS011;4335;48.860;9.198;2022-11-20T04:07:24;3.33;;;2.90;;
8594;SDS011;4335;48.860;9.198;2022-11-20T04:09:51;3.17;;;2.60;;
8594;SDS011;4335;48.860;9.198;2022-11-20T04:12:17;3.50;;;3.20;;
8594;SDS011;4335;48.860;9.198;2022-11-20T04:14:44;4.23;;;3.10;;
8594;SDS011;4335;48.860;9.198;2022-11-20T04:17:11;4.30;;;2.77;;
8594;SDS011;4335;48.860;9.198;2022-11-20T04:19:45;4.40;;;3.03;;
8594;SDS011;4335;48.860;9.198;2022-11-20T04:22:18;5.20;;;3.23;;
8594;SDS011;4335;48.860;9.198;2022-11-20T04:24:48;5.57;;;2.40;;
8594;SDS011;4335;48.860;9.198;2022-11-20T04:27:14;3.13;;;2.83;;
8594;SDS011;4335;48.860;9.198;2022-11-20T04:29:41;3.30;;;2.97;;
8594;SDS011;4335;48.860;9.198;2022-11-20T04:32:14;3.07;;;2.73;;
8594;SDS011;4335;48.860;9.198;2022-11-20T04:34:43;3.00;;;2.70;;
8594;SDS011;4335;48.860;9.198;2022-11-20T04:37:11;3.07;;;2.80;;
8594;SDS011;4335;48.860;9.198;2022-11-20T04:39:38;3.23;;;2.40;;
8594;SDS011;4335;48.860;9.198;2022-11-20T04:42:08;2.97;;;2.67;;
8594;SDS011;4335;48.860;9.198;2022-11-20T04:44:53;5.57;;;3.13;;
8594;SDS011;4335;48.860;9.198;2022-11-20T04:47:19;3.57;;;2.93;;
8594;SDS011;4335;48.860;9.198;2022-11-20T04:49:47;4.10;;;2.57;;
8594;SDS011;4335;48.860;9.198;2022-11-20T04:52:17;3.47;;;3.17;;
8594;SDS011;4335;48.860;9.198;2022-11-20T04:54:44;3.23;;;2.90;;
8594;SDS011;4335;48.860;9.198;2022-11-20T04:57:17;3.83;;;2.90;;
8594;SDS011;4335;48.860;9.198;2022-11-20T04:59:44;3.47;;;2.93;;
8594;SDS011;4335;48.860;9.198;2022-11-20T05:02:13;2.93;;;2.63;;
8594;SDS011;4335;48.860;9.198;2022-11-20T05:04:40;3.70;;;2.97;;
8594;SDS011;4335;48.860;9.198;2022-11-20T05:07:13;3.60;;;3.17;;
8594;SDS011;4335;48.860;9.198;2022-11-20T05:09:40;2.87;;;2.50;;
8594;SDS011;4335;48.860;9.198;2022-11-20T05:12:12;4.00;;;3.00;;
8594;SDS011;4335;48.860;9.198;2022-11-20T05:14:39;2.90;;;2.60;;
8594;SDS011;4335;48.860;9.198;2022-11-20T05:17:06;6.13;;;3.33;;
8594;SDS011;4335;48.860;9.198;2022-11-20T05:19:42;3.03;;;2.73;;
8594;SDS011;4335;48.860;9.198;2022-11-20T05:22:09;2.90;;;2.63;;
8594;SDS011;4335;48.860;9.198;2022-11-20T05:24:39;5.03;;;2.80;;
8594;SDS011;4335;48.860;9.198;2022-11-20T05:27:09;5.40;;;2.93;;
8594;SDS011;4335;48.860;9.198;2022-11-20T05:29:36;3.30;;;2.67;;
8594;SDS011;4335;48.860;9.198;2022-11-20T05:32:02;7.23;;;3.27;;
8594;SDS011;4335;48.860;9.198;2022-11-20T05:34:31;3.17;;;2.90;;
8594;SDS011;4335;48.860;9.198;2022-11-20T05:36:57;3.33;;;3.03;;
8594;SDS011;4335;48.860;9.198;2022-11-20T05:39:26;3.37;;;3.07;;
8594;SDS011;4335;48.860;9.198;2022-11-20T05:41:53;3.00;;;2.70;;
8594;SDS011;4335;48.860;9.198;2022-11-20T05:44:35;3.07;;;2.70;;
8594;SDS011;4335;48.860;9.198;2022-11-20T05:47:01;3.30;;;2.90;;
8594;SDS011;4335;48.860;9.198;2022-11-20T05:49:31;2.60;;;2.40;;
8594;SDS011;4335;48.860;9.198;2022-11-20T05:51:58;3.43;;;2.67;;
8594;SDS011;4335;48.860;9.198;2022-11-20T05:54:24;3.43;;;3.00;;
8594;SDS011;4335;48.860;9.198;2022-11-20T05:56:51;3.63;;;2.50;;
8594;SDS011;4335;48.860;9.198;2022-11-20T05:59:18;2.60;;;2.40;;
8594;SDS011;4335;48.860;9.198;2022-11-20T06:01:45;3.00;;;2.70;;
8594;SDS011;4335;48.860;9.198;2022-11-20T06:04:12;3.30;;;2.93;;
8594;SDS011;4335;48.860;9.198;2022-11-20T06:06:39;6.37;;;3.00;;
8594;SDS011;4335;48.860;9.198;2022-11-20T06:09:05;4.20;;;3.00;;
8594;SDS011;4335;48.860;9.198;2022-11-20T06:11:36;4.27;;;3.00;;
8594;SDS011;4335;48.860;9.198;2022-11-20T06:14:02;3.90;;;2.53;;
8594;SDS011;4335;48.860;9.198;2022-11-20T06:16:30;3.73;;;2.80;;
8594;SDS011;4335;48.860;9.198;2022-11-20T06:18:57;3.53;;;2.73;;
8594;SDS011;4335;48.860;9.198;2022-11-20T06:21:26;3.77;;;2.47;;
8594;SDS011;4335;48.860;9.198;2022-11-20T06:23:56;3.00;;;2.70;;
8594;SDS011;4335;48.860;9.198;2022-11-20T06:26:23;3.97;;;2.53;;
8594;SDS011;4335;48.860;9.198;2022-11-20T06:28:51;4.67;;;2.40;;
8594;SDS011;4335;48.860;9.198;2022-11-20T06:31:22;3.30;;;2.70;;
8594;SDS011;4335;48.860;9.198;2022-11-20T06:33:51;3.00;;;2.70;;
8594;SDS011;4335;48.860;9.198;2022-11-20T06:36:19;2.47;;;2.20;;
8594;SDS011;4335;48.860;9.198;2022-11-20T06:38:48;3.70;;;2.40;;
8594;SDS011;4335;48.860;9.198;2022-11-20T06:41:16;5.23;;;2.80;;
8594;SDS011;4335;48.860;9.198;2022-11-20T06:43:47;3.00;;;2.70;;
8594;SDS011;4335;48.860;9.198;2022-11-20T06:46:18;3.20;;;2.90;;
8594;SDS011;4335;48.860;9.198;2022-11-20T06:48:49;5.33;;;2.77;;
8594;SDS011;4335;48.860;9.198;2022-11-20T06:51:19;3.00;;;2.50;;
8594;SDS011;4335;48.860;9.198;2022-11-20T06:53:47;3.87;;;2.03;;
8594;SDS011;4335;48.860;9.198;2022-11-20T06:56:16;3.33;;;2.60;;
8594;SDS011;4335;48.860;9.198;2022-11-20T06:58:43;3.70;;;2.40;;
8594;SDS011;4335;48.860;9.198;2022-11-20T07:01:15;3.33;;;2.43;;
8594;SDS011;4335;48.860;9.198;2022-11-20T07:03:48;4.60;;;3.30;;
8594;SDS011;4335;48.860;9.198;2022-11-20T07:06:15;3.33;;;2.40;;
8594;SDS011;4335;48.860;9.198;2022-11-20T07:08:46;2.50;;;2.27;;
8594;SDS011;4335;48.860;9.198;2022-11-20T07:11:12;3.03;;;2.80;;
8594;SDS011;4335;48.860;9.198;2022-11-20T07:13:39;2.33;;;2.13;;
8594;SDS011;4335;48.860;9.198;2022-11-20T07:16:07;4.43;;;2.43;;
8594;SDS011;4335;48.860;9.198;2022-11-20T07:18:34;3.13;;;2.30;;
8594;SDS011;4335;48.860;9.198;2022-11-20T07:21:01;2.57;;;2.37;;
8594;SDS011;4335;48.860;9.198;2022-11-20T07:23:31;2.43;;;2.20;;
8594;SDS011;4335;48.860;9.198;2022-11-20T07:26:03;3.13;;;2.10;;
8594;SDS011;4335;48.860;9.198;2022-11-20T07:28:33;3.63;;;2.10;;
8594;SDS011;4335;48.860;9.198;2022-11-20T07:31:01;2.43;;;1.90;;
8594;SDS011;4335;48.860;9.198;2022-11-20T07:33:27;2.20;;;1.90;;
8594;SDS011;4335;48.860;9.198;2022-11-20T07:35:54;2.37;;;2.00;;
8594;SDS011;4335;48.860;9.198;2022-11-20T07:38:21;2.10;;;1.90;;
8594;SDS011;4335;48.860;9.198;2022-11-20T07:40:48;2.20;;;2.00;;
8594;SDS011;4335;48.860;9.198;2022-11-20T07:43:26;2.20;;;2.00;;
8594;SDS011;4335;48.860;9.198;2022-11-20T07:45:54;4.73;;;2.63;;
8594;SDS011;4335;48.860;9.198;2022-11-20T07:48:24;4.07;;;3.03;;
8594;SDS011;4335;48.860;9.198;2022-11-20T07:50:53;3.47;;;2.00;;
8594;SDS011;4335;48.860;9.198;2022-11-20T07:53:20;5.10;;;2.33;;
8594;SDS011;4335;48.860;9.198;2022-11-20T07:55:48;2.00;;;1.90;;
8594;SDS011;4335;48.860;9.198;2022-11-20T07:58:17;2.77;;;2.23;;
8594;SDS011;4335;48.860;9.198;2022-11-20T08:00:48;2.50;;;1.97;;
8594;SDS011;4335;48.860;9.198;2022-11-20T08:03:14;2.53;;;2.33;;
8594;SDS011;4335;48.860;9.198;2022-11-20T08:05:41;3.80;;;2.60;;
8594;SDS011;4335;48.860;9.198;2022-11-20T08:08:24;2.90;;;2.57;;
8594;SDS011;4335;48.860;9.198;2022-11-20T08:10:51;2.67;;;2.23;;
8594;SDS011;4335;48.860;9.198;2022-11-20T08:13:38;2.03;;;1.87;;
8594;SDS011;4335;48.860;9.198;2022-11-20T08:16:29;4.47;;;3.10;;
8594;SDS011;4335;48.860;9.198;2022-11-20T08:18:59;3.90;;;3.30;;
8594;SDS011;4335;48.860;9.198;2022-11-20T08:21:26;3.90;;;2.23;;
8594;SDS011;4335;48.860;9.198;2022-11-20T08:23:52;4.37;;;2.40;;
8594;SDS011;4335;48.860;9.198;2022-11-20T08:26:20;4.60;;;2.40;;
8594;SDS011;4335;48.860;9.198;2022-11-20T08:28:47;3.53;;;2.27;;
8594;SDS011;4335;48.860;9.198;2022-11-20T08:31:20;2.00;;;1.63;;
8594;SDS011;4335;48.860;9.198;2022-11-20T08:33:48;2.10;;;1.90;;
8594;SDS011;4335;48.860;9.198;2022-11-20T08:36:14;2.23;;;1.90;;
8594;SDS011;4335;48.860;9.198;2022-11-20T08:38:42;2.47;;;2.27;;
8594;SDS011;4335;48.860;9.198;2022-11-20T08:41:15;3.53;;;2.20;;
8594;SDS011;4335;48.860;9.198;2022-11-20T08:43:53;2.30;;;2.10;;
8594;SDS011;4335;48.860;9.198;2022-11-20T08:46:21;2.50;;;2.03;;
8594;SDS011;4335;48.860;9.198;2022-11-20T08:48:59;2.50;;;2.13;;
8594;SDS011;4335;48.860;9.198;2022-11-20T08:51:26;2.37;;;1.90;;
8594;SDS011;4335;48.860;9.198;2022-11-20T08:53:56;1.80;;;1.70;;
8594;SDS011;4335;48.860;9.198;2022-11-20T08:56:22;2.30;;;2.10;;
8594;SDS011;4335;48.860;9.198;2022-11-20T08:58:49;3.20;;;2.37;;
8594;SDS011;4335;48.860;9.198;2022-11-20T09:01:17;2.20;;;1.53;;
8594;SDS011;4335;48.860;9.198;2022-11-20T09:03:49;2.50;;;2.20;;
8594;SDS011;4335;48.860;9.198;2022-11-20T09:06:17;2.63;;;1.87;;
8594;SDS011;4335;48.860;9.198;2022-11-20T09:08:47;1.70;;;1.50;;
8594;SDS011;4335;48.860;9.198;2022-11-20T09:11:24;3.30;;;1.87;;
8594;SDS011;4335;48.860;9.198;2022-11-20T09:13:51;1.87;;;1.57;;
8594;SDS011;4335;48.860;9.198;2022-11-20T09:16:18;2.10;;;1.73;;
8594;SDS011;4335;48.860;9.198;2022-11-20T09:18:49;2.57;;;1.70;;
8594;SDS011;4335;48.860;9.198;2022-11-20T09:21:17;2.23;;;1.77;;
8594;SDS011;4335;48.860;9.198;2022-11-20T09:23:46;3.07;;;1.93;;
8594;SDS011;4335;48.860;9.198;2022-11-20T09:26:13;3.60;;;1.80;;
8594;SDS011;4335;48.860;9.198;2022-11-20T09:28:46;2.90;;;2.03;;
8594;SDS011;4335;48.860;9.198;2022-11-20T09:31:16;2.00;;;1.50;;
8594;SDS011;4335;48.860;9.198;2022-11-20T09:33:48;1.90;;;1.67;;
8594;SDS011;4335;48.860;9.198;2022-11-20T09:36:15;2.30;;;2.10;;
8594;SDS011;4335;48.860;9.198;2022-11-20T09:38:44;2.10;;;1.60;;
8594;SDS011;4335;48.860;9.198;2022-11-20T09:41:19;1.87;;;1.73;;
8594;SDS011;4335;48.860;9.198;2022-11-20T09:44:07;1.70;;;1.40;;
8594;SDS011;4335;48.860;9.198;2022-11-20T09:46:52;2.57;;;2.00;;
8594;SDS011;4335;48.860;9.198;2022-11-20T09:49:28;2.10;;;1.73;;
8594;SDS011;4335;48.860;9.198;2022-11-20T09:52:07;1.60;;;1.50;;
8594;SDS011;4335;48.860;9.198;2022-11-20T09:54:49;2.53;;;1.43;;
8594;SDS011;4335;48.860;9.198;2022-11-20T09:57:18;2.00;;;1.60;;
8594;SDS011;4335;48.860;9.198;2022-11-20T09:59:48;1.40;;;1.30;;
8594;SDS011;4335;48.860;9.198;2022-11-20T10:02:25;3.03;;;1.83;;
8594;SDS011;4335;48.860;9.198;2022-11-20T10:05:01;2.20;;;1.60;;
8594;SDS011;4335;48.860;9.198;2022-11-20T10:07:36;4.57;;;2.20;;
8594;SDS011;4335;48.860;9.198;2022-11-20T10:10:16;2.43;;;1.80;;
8594;SDS011;4335;48.860;9.198;2022-11-20T10:12:52;3.07;;;2.03;;
8594;SDS011;4335;48.860;9.198;2022-11-20T10:15:31;3.10;;;1.93;;
8594;SDS011;4335;48.860;9.198;2022-11-20T10:18:17;1.93;;;1.73;;
8594;SDS011;4335;48.860;9.198;2022-11-20T10:20:57;1.70;;;1.60;;
8594;SDS011;4335;48.860;9.198;2022-11-20T10:23:39;4.90;;;2.37;;
8594;SDS011;4335;48.860;9.198;2022-11-20T10:26:22;2.83;;;2.00;;
8594;SDS011;4335;48.860;9.198;2022-11-20T10:29:01;4.53;;;2.40;;
8594;SDS011;4335;48.860;9.198;2022-11-20T10:31:36;2.70;;;2.17;;
8594;SDS011;4335;48.860;9.198;2022-11-20T10:34:05;2.77;;;2.40;;
8594;SDS011;4335;48.860;9.198;2022-11-20T10:36:43;3.00;;;2.37;;
8594;SDS011;4335;48.860;9.198;2022-11-20T10:39:15;2.07;;;1.73;;
8594;SDS011;4335;48.860;9.198;2022-11-20T10:41:45;2.27;;;1.80;;
8594;SDS011;4335;48.860;9.198;2022-11-20T10:44:25;2.27;;;2.00;;
8594;SDS011;4335;48.860;9.198;2022-11-20T10:47:13;2.80;;;2.17;;
8594;SDS011;4335;48.860;9.198;2022-11-20T10:49:44;3.07;;;2.10;;
8594;SDS011;4335;48.860;9.198;2022-11-20T10:52:13;3.47;;;2.23;;
8594;SDS011;4335;48.860;9.198;2022-11-20T10:54:49;4.23;;;2.77;;
8594;SDS011;4335;48.860;9.198;2022-11-20T10:57:27;2.70;;;1.97;;
8594;SDS011;4335;48.860;9.198;2022-11-20T11:00:15;2.00;;;1.80;;
8594;SDS011;4335;48.860;9.198;2022-11-20T11:02:46;1.93;;;1.73;;
8594;SDS011;4335;48.860;9.198;2022-11-20T11:05:20;5.77;;;1.97;;
8594;SDS011;4335;48.860;9.198;2022-11-20T11:07:54;4.70;;;3.30;;
8594;SDS011;4335;48.860;9.198;2022-11-20T11:10:25;5.60;;;4.27;;
8594;SDS011;4335;48.860;9.198;2022-11-20T11:12:58;2.53;;;2.20;;
8594;SDS011;4335;48.860;9.198;2022-11-20T11:15:25;3.57;;;2.50;;
8594;SDS011;4335;48.860;9.198;2022-11-20T11:17:54;2.10;;;1.87;;
8594;SDS011;4335;48.860;9.198;2022-11-20T11:20:21;2.83;;;2.20;;
8594;SDS011;4335;48.860;9.198;2022-11-20T11:22:50;2.43;;;1.70;;
8594;SDS011;4335;48.860;9.198;2022-11-20T11:25:26;4.07;;;2.23;;
8594;SDS011;4335;48.860;9.198;2022-11-20T11:27:55;3.47;;;1.93;;
8594;SDS011;4335;48.860;9.198;2022-11-20T11:30:25;4.40;;;2.17;;
8594;SDS011;4335;48.860;9.198;2022-11-20T11:33:02;2.70;;;2.20;;
8594;SDS011;4335;48.860;9.198;2022-11-20T11:35:31;2.20;;;2.00;;
8594;SDS011;4335;48.860;9.198;2022-11-20T11:38:02;4.23;;;2.10;;
8594;SDS011;4335;48.860;9.198;2022-11-20T11:40:34;3.93;;;2.67;;
8594;SDS011;4335;48.860;9.198;2022-11-20T11:43:17;4.73;;;3.23;;
8594;SDS011;4335;48.860;9.198;2022-11-20T11:46:23;3.40;;;2.57;;
8594;SDS011;4335;48.860;9.198;2022-11-20T11:48:54;3.43;;;2.90;;
8594;SDS011;4335;48.860;9.198;2022-11-20T11:51:30;3.77;;;2.60;;
8594;SDS011;4335;48.860;9.198;2022-11-20T11:54:10;4.33;;;2.70;;
8594;SDS011;4335;48.860;9.198;2022-11-20T11:56:42;2.53;;;2.10;;
8594;SDS011;4335;48.860;9.198;2022-11-20T11:59:11;2.67;;;2.03;;
8594;SDS011;4335;48.860;9.198;2022-11-20T12:01:50;4.93;;;2.40;;
8594;SDS011;4335;48.860;9.198;2022-11-20T12:04:21;4.50;;;2.50;;
8594;SDS011;4335;48.860;9.198;2022-11-20T12:06:58;3.77;;;2.20;;
8594;SDS011;4335;48.860;9.198;2022-11-20T12:09:33;4.83;;;2.70;;
8594;SDS011;4335;48.860;9.198;2022-11-20T12:12:05;4.40;;;1.90;;
8594;SDS011;4335;48.860;9.198;2022-11-20T12:14:37;5.10;;;2.20;;
8594;SDS011;4335;48.860;9.198;2022-11-20T12:17:07;3.40;;;1.80;;
8594;SDS011;4335;48.860;9.198;2022-11-20T12:19:36;2.97;;;2.00;;
8594;SDS011;4335;48.860;9.198;2022-11-20T12:22:05;2.53;;;1.67;;
8594;SDS011;4335;48.860;9.198;2022-11-20T12:24:44;4.10;;;2.80;;
8594;SDS011;4335;48.860;9.198;2022-11-20T12:27:37;3.10;;;2.00;;
8594;SDS011;4335;48.860;9.198;2022-11-20T12:30:23;4.43;;;2.17;;
8594;SDS011;4335;48.860;9.198;2022-11-20T12:33:04;3.23;;;1.83;;
8594;SDS011;4335;48.860;9.198;2022-11-20T12:36:03;3.73;;;2.03;;
8594;SDS011;4335;48.860;9.198;2022-11-20T12:41:57;3.47;;;1.93;;
8594;SDS011;4335;48.860;9.198;2022-11-20T12:47:58;6.13;;;2.20;;
8594;SDS011;4335;48.860;9.198;2022-11-20T12:50:51;3.03;;;1.57;;
8594;SDS011;4335;48.860;9.198;2022-11-20T12:53:33;3.87;;;1.67;;
8594;SDS011;4335;48.860;9.198;2022-11-20T12:56:09;2.17;;;1.57;;
8594;SDS011;4335;48.860;9.198;2022-11-20T12:58:44;2.90;;;1.97;;
8594;SDS011;4335;48.860;9.198;2022-11-20T13:01:22;5.00;;;1.47;;
8594;SDS011;4335;48.860;9.198;2022-11-20T13:06:59;2.80;;;1.50;;
8594;SDS011;4335;48.860;9.198;2022-11-20T13:09:29;2.17;;;1.40;;
8594;SDS011;4335;48.860;9.198;2022-11-20T13:11:59;2.73;;;1.60;;
8594;SDS011;4335;48.860;9.198;2022-11-20T13:14:31;2.30;;;1.77;;
8594;SDS011;4335;48.860;9.198;2022-11-20T13:17:04;2.43;;;1.40;;
8594;SDS011;4335;48.860;9.198;2022-11-20T13:19:40;1.87;;;1.27;;
8594;SDS011;4335;48.860;9.198;2022-11-20T13:22:07;2.90;;;1.53;;
8594;SDS011;4335;48.860;9.198;2022-11-20T13:24:35;2.10;;;1.35;;
8594;SDS011;4335;48.860;9.198;2022-11-20T13:27:04;3.53;;;1.40;;
8594;SDS011;4335;48.860;9.198;2022-11-20T13:30:00;3.10;;;1.97;;
8594;SDS011;4335;48.860;9.198;2022-11-20T13:32:47;3.83;;;2.08;;
8594;SDS011;4335;48.860;9.198;2022-11-20T13:35:24;3.88;;;2.38;;
8594;SDS011;4335;48.860;9.198;2022-11-20T13:37:59;3.93;;;2.37;;
8594;SDS011;4335;48.860;9.198;2022-11-20T13:40:31;2.83;;;1.40;;
8594;SDS011;4335;48.860;9.198;2022-11-20T13:43:15;2.47;;;1.43;;
8594;SDS011;4335;48.860;9.198;2022-11-20T13:45:56;2.33;;;1.17;;
8594;SDS011;4335;48.860;9.198;2022-11-20T13:48:29;1.50;;;1.20;;
8594;SDS011;4335;48.860;9.198;2022-11-20T13:53:58;3.47;;;2.70;;
8594;SDS011;4335;48.860;9.198;2022-11-20T13:56:38;2.67;;;2.00;;
8594;SDS011;4335;48.860;9.198;2022-11-20T13:59:17;2.83;;;1.70;;
8594;SDS011;4335;48.860;9.198;2022-11-20T14:01:58;3.28;;;1.88;;
8594;SDS011;4335;48.860;9.198;2022-11-20T14:04:27;2.60;;;1.57;;
8594;SDS011;4335;48.860;9.198;2022-11-20T14:07:00;3.97;;;1.83;;
8594;SDS011;4335;48.860;9.198;2022-11-20T14:09:33;4.20;;;1.53;;
8594;SDS011;4335;48.860;9.198;2022-11-20T14:12:01;3.57;;;1.73;;
8594;SDS011;4335;48.860;9.198;2022-11-20T14:14:29;2.30;;;1.60;;
8594;SDS011;4335;48.860;9.198;2022-11-20T14:17:05;2.27;;;1.50;;
8594;SDS011;4335;48.860;9.198;2022-11-20T14:19:32;2.20;;;1.40;;
8594;SDS011;4335;48.860;9.198;2022-11-20T14:22:15;1.90;;;1.50;;
8594;SDS011;4335;48.860;9.198;2022-11-20T14:24:44;2.30;;;1.37;;
8594;SDS011;4335;48.860;9.198;2022-11-20T14:27:12;2.60;;;1.60;;
8594;SDS011;4335;48.860;9.198;2022-11-20T14:29:44;2.10;;;1.67;;
8594;SDS011;4335;48.860;9.198;2022-11-20T14:32:16;4.00;;;1.83;;
8594;SDS011;4335;48.860;9.198;2022-11-20T14:34:45;2.00;;;1.60;;
8594;SDS011;4335;48.860;9.198;2022-11-20T14:37:17;2.20;;;1.43;;
8594;SDS011;4335;48.860;9.198;2022-11-20T14:39:50;1.90;;;1.33;;
8594;SDS011;4335;48.860;9.198;2022-11-20T14:42:18;2.27;;;1.40;;
8594;SDS011;4335;48.860;9.198;2022-11-20T14:44:47;3.60;;;2.40;;
8594;SDS011;4335;48.860;9.198;2022-11-20T14:47:15;3.30;;;2.20;;
8594;SDS011;4335;48.860;9.198;2022-11-20T14:49:45;1.87;;;1.57;;
8594;SDS011;4335;48.860;9.198;2022-11-20T14:52:13;2.07;;;1.33;;
8594;SDS011;4335;48.860;9.198;2022-11-20T14:54:44;3.63;;;1.60;;
8594;SDS011;4335;48.860;9.198;2022-11-20T14:57:22;3.30;;;2.03;;
8594;SDS011;4335;48.860;9.198;2022-11-20T14:59:51;4.33;;;2.33;;
8594;SDS011;4335;48.860;9.198;2022-11-20T15:02:29;2.23;;;2.03;;
8594;SDS011;4335;48.860;9.198;2022-11-20T15:04:56;3.80;;;2.40;;
8594;SDS011;4335;48.860;9.198;2022-11-20T15:07:26;2.27;;;1.60;;
8594;SDS011;4335;48.860;9.198;2022-11-20T15:10:00;2.07;;;1.60;;
8594;SDS011;4335;48.860;9.198;2022-11-20T15:12:28;4.70;;;2.93;;
8594;SDS011;4335;48.860;9.198;2022-11-20T15:14:56;3.53;;;1.90;;
8594;SDS011;4335;48.860;9.198;2022-11-20T15:17:25;2.07;;;1.60;;
8594;SDS011;4335;48.860;9.198;2022-11-20T15:19:52;6.30;;;2.50;;
8594;SDS011;4335;48.860;9.198;2022-11-20T15:22:20;5.43;;;3.40;;
8594;SDS011;4335;48.860;9.198;2022-11-20T15:24:47;4.10;;;1.93;;
8594;SDS011;4335;48.860;9.198;2022-11-20T15:27:14;3.37;;;1.90;;
8594;SDS011;4335;48.860;9.198;2022-11-20T15:29:41;2.53;;;1.83;;
8594;SDS011;4335;48.860;9.198;2022-11-20T15:32:11;3.37;;;1.90;;
8594;SDS011;4335;48.860;9.198;2022-11-20T15:34:38;2.23;;;1.60;;
8594;SDS011;4335;48.860;9.198;2022-11-20T15:37:05;3.73;;;2.10;;
8594;SDS011;4335;48.860;9.198;2022-11-20T15:39:31;6.07;;;5.23;;
8594;SDS011;4335;48.860;9.198;2022-11-20T15:41:59;32.00;;;25.40;;
8594;SDS011;4335;48.860;9.198;2022-11-20T15:44:29;14.40;;;11.97;;
8594;SDS011;4335;48.860;9.198;2022-11-20T15:46:55;7.47;;;5.73;;
8594;SDS011;4335;48.860;9.198;2022-11-20T15:49:22;5.23;;;4.20;;